Etusivu
METAR-TAF:

METAR-TAF

Lentoasemat :

Metcalf Field

Toledo, Ohio, Yhdysvallat

Leveyspiiri: 41-33-47N, Pituuspiiri: 083-28-35W, korkeus merenpinnasta: 189 m

Tämänhetkinen sää

Tämä raportti tehtiin 1 tunti ja 2 minuuttia sitten, kello 17.53 UTC
Tuuli 9 kn lounaasta
Lämpötila 1°C
Kosteus 64%
Ilmanpaine 1023 hPa
Näkyvyys: 16.1 km
Pilvistä 5000 ft:n korkeudessa

METAR: KTDZ 141753Z AUTO 23009KT 10SM OVC050 01/M05 A3021 RMK AO2 SLP237 T00061050 10006 21017 58001 $

Aika: 13:55 (18:55 UTC)


TAF: puuttuu

Säähavainnot ja -ennusteet yli 4000 lentoasemalta (METAR- ja TAF-raportit).

Käytössä olevat sääasemat on merkitty karttaan keltaisilla ja punaisilla pisteillä.

Aseta hiiri pisteen päälle nähdäksesi sääaseman nimen.

Klikkaa sitten nähdäksesi säähavainnot ja -ennusteet.

Kartan vaihtaminen: klikkaa mustalla rastilla varustettuja vihreitä pisteitä, niin voit zoomata sisään; viivalla varustettua vihreää pistettä, niin voit zoomata ulos tai vihreitä nuolia, niin pääset viereisille kartoille.


METAR-TAF: